Time;durP1;ratioP1;P1;durP2;ratioP2;P2;SDS_P1;SDS_P2;PMS_P1;PMS_P2;Temp;Humidity;BMP_temperature;BMP_pressure;BME280_temperature;BME280_humidity;BME280_pressure;Samples;Min_cycle;Max_cycle;Signal;HPM_P1;HPM_P2
2022/12/13 05:22:32;;;;;;;9.23;5.68;;;;;;;-5.55;100.00;99565.56;5109361;27;20331;-64
2022/12/13 05:24:58;;;;;;;10.40;3.88;;;;;;;-5.55;100.00;99566.41;5109441;28;20043;-64
2022/12/13 05:27:23;;;;;;;21.35;6.18;;;;;;;-5.52;100.00;99570.59;5109154;28;20442;-64
2022/12/13 05:29:48;;;;;;;14.27;5.90;;;;;;;-5.51;100.00;99569.69;5109350;28;20066;-64
2022/12/13 05:32:14;;;;;;;9.13;5.15;;;;;;;-5.56;100.00;99563.91;5108905;28;20039;-64
2022/12/13 05:34:39;;;;;;;17.05;6.47;;;;;;;-5.55;100.00;99562.97;5109313;28;20108;-64
2022/12/13 05:37:05;;;;;;;20.20;6.00;;;;;;;-5.56;100.00;99563.91;5109570;28;20407;-64
2022/12/13 05:39:30;;;;;;;14.85;6.78;;;;;;;-5.55;100.00;99565.56;5109199;28;20090;-64
2022/12/13 05:41:57;;;;;;;14.32;6.22;;;;;;;-5.55;100.00;99568.16;5108907;28;20032;-63
2022/12/13 05:44:23;;;;;;;21.23;6.10;;;;;;;-5.52;100.00;99568.84;5109111;28;20036;-64
2022/12/13 05:46:48;;;;;;;10.23;5.93;;;;;;;-5.48;100.00;99572.06;5108880;28;20408;-64
2022/12/13 05:49:13;;;;;;;22.42;7.78;;;;;;;-5.49;100.00;99560.03;5107759;28;20126;-64
2022/12/13 05:51:39;;;;;;;24.70;8.88;;;;;;;-5.48;100.00;99566.88;5108530;28;20086;-64
2022/12/13 05:54:04;;;;;;;19.67;8.32;;;;;;;-5.49;100.00;99563.47;5109210;28;20380;-65
2022/12/13 05:56:30;;;;;;;18.58;6.63;;;;;;;-5.46;100.00;99563.28;5108762;28;20035;-65
2022/12/13 05:58:55;;;;;;;14.98;6.80;;;;;;;-5.45;100.00;99561.53;5108706;28;20678;-64
2022/12/13 06:01:21;;;;;;;12.43;6.28;;;;;;;-5.45;100.00;99556.34;5108393;28;20044;-64
2022/12/13 06:03:46;;;;;;;16.33;7.43;;;;;;;-5.51;100.00;99557.53;5109259;28;20142;-64
2022/12/13 06:06:12;;;;;;;10.05;6.25;;;;;;;-5.56;100.00;99548.34;5108727;28;20438;-64
2022/12/13 06:08:38;;;;;;;8.45;5.30;;;;;;;-5.51;100.00;99561.88;5108801;28;20039;-64
2022/12/13 06:11:05;;;;;;;16.45;6.50;;;;;;;-5.54;100.00;99556.88;5108841;28;20129;-64
2022/12/13 06:13:31;;;;;;;13.93;7.43;;;;;;;-5.57;100.00;99565.66;5108935;28;20086;-64
2022/12/13 06:16:04;;;;;;;13.95;5.82;;;;;;;-5.61;100.00;99551.19;5108588;28;20444;-64
2022/12/13 06:18:32;;;;;;;18.50;7.95;;;;;;;-5.54;100.00;99555.13;5108922;28;20036;-64
2022/12/13 06:21:03;;;;;;;23.13;8.35;;;;;;;-5.57;100.00;99552.69;5108143;28;20079;-64
2022/12/13 06:23:30;;;;;;;16.00;7.43;;;;;;;-5.62;100.00;99548.69;5108442;28;20032;-64
2022/12/13 06:25:56;;;;;;;33.47;8.40;;;;;;;-5.56;100.00;99548.34;5107021;28;20067;-64
2022/12/13 06:28:22;;;;;;;19.02;7.88;;;;;;;-5.68;100.00;99549.88;5108384;28;20078;-64
2022/12/13 06:30:51;;;;;;;10.27;5.22;;;;;;;-5.65;100.00;99548.88;5107987;28;20047;-64
2022/12/13 06:33:18;;;;;;;19.52;7.25;;;;;;;-5.72;100.00;99547.56;5098195;28;20048;-64
2022/12/13 06:35:43;;;;;;;23.00;8.80;;;;;;;-5.77;100.00;99558.19;5094677;28;20036;-64
2022/12/13 06:38:08;;;;;;;19.25;7.00;;;;;;;-5.77;100.00;99550.41;5094609;28;20114;-64
2022/12/13 06:40:34;;;;;;;18.50;9.82;;;;;;;-5.79;100.00;99558.28;5094305;28;20663;-64
2022/12/13 06:42:59;;;;;;;22.48;9.30;;;;;;;-5.72;100.00;99557.94;5094673;28;20048;-63
2022/12/13 06:45:25;;;;;;;27.75;8.90;;;;;;;-5.79;100.00;99560.03;5094711;28;20480;-64
2022/12/13 06:47:50;;;;;;;25.98;8.65;;;;;;;-5.74;100.00;99565.78;5094507;28;20036;-63
2022/12/13 06:50:16;;;;;;;23.25;8.45;;;;;;;-5.77;100.00;99561.63;5093974;28;20066;-63
2022/12/13 06:52:41;;;;;;;21.00;7.90;;;;;;;-5.70;100.00;99576.84;5094336;28;20032;-63
2022/12/13 06:55:07;;;;;;;25.58;7.47;;;;;;;-5.73;100.00;99575.25;5094133;28;20044;-63
2022/12/13 06:57:33;;;;;;;20.95;7.60;;;;;;;-5.81;100.00;99578.25;5094246;28;20044;-63
2022/12/13 06:59:59;;;;;;;20.70;10.45;;;;;;;-5.79;100.00;99586.81;5094254;28;20417;-62
2022/12/13 07:02:25;;;;;;;17.15;9.10;;;;;;;-5.78;100.00;99580.69;5092640;28;20040;-63
2022/12/13 07:04:50;;;;;;;35.88;11.02;;;;;;;-5.92;100.00;99587.63;5094204;28;20038;-63
2022/12/13 07:07:15;;;;;;;13.35;8.00;;;;;;;-5.72;100.00;99579.53;5094169;28;20511;-62
2022/12/13 07:09:41;;;;;;;32.30;9.48;;;;;;;-5.76;100.00;99584.03;5094400;28;20035;-63
2022/12/13 07:12:07;;;;;;;24.35;9.13;;;;;;;-5.70;100.00;99589.81;5093862;28;20400;-63
2022/12/13 07:14:32;;;;;;;28.45;10.57;;;;;;;-5.78;100.00;99585.88;5093962;28;20036;-64
2022/12/13 07:16:58;;;;;;;22.75;9.15;;;;;;;-5.81;100.00;99580.03;5093715;28;20036;-63
2022/12/13 07:19:24;;;;;;;21.83;9.40;;;;;;;-5.78;100.00;99583.28;5093989;28;20040;-64
2022/12/13 07:21:49;;;;;;;34.75;10.32;;;;;;;-5.79;100.00;99584.22;5093495;28;20032;-64
2022/12/13 07:24:15;;;;;;;25.45;8.43;;;;;;;-5.85;100.00;99586.31;5093797;28;20114;-68
2022/12/13 07:26:40;;;;;;;22.55;7.28;;;;;;;-5.77;100.00;99592.75;5092137;28;20048;-67
2022/12/13 07:29:05;;;;;;;25.85;8.98;;;;;;;-5.83;100.00;99592.25;5093604;28;20132;-67
2022/12/13 07:31:34;;;;;;;34.40;11.65;;;;;;;-5.80;100.00;99592.94;5093190;28;20047;-68
2022/12/13 07:34:00;;;;;;;22.30;9.63;;;;;;;-5.79;100.00;99597.19;5092245;28;20118;-67
2022/12/13 07:36:25;;;;;;;31.60;10.13;;;;;;;-5.80;100.00;99598.13;5093529;28;20602;-68
2022/12/13 07:38:52;;;;;;;28.50;10.55;;;;;;;-5.89;100.00;99603.81;5093493;28;20040;-68
2022/12/13 07:41:18;;;;;;;39.90;11.20;;;;;;;-5.82;100.00;99612.91;5093240;28;20063;-66
2022/12/13 07:43:44;;;;;;;27.40;10.80;;;;;;;-5.78;100.00;99609.25;5092773;28;20087;-67
2022/12/13 07:46:10;;;;;;;29.33;11.00;;;;;;;-5.75;100.00;99603.88;5092897;28;20036;-64
2022/12/13 07:48:36;;;;;;;32.90;12.95;;;;;;;-5.68;100.00;99603.53;5093273;28;20492;-65
2022/12/13 07:51:07;;;;;;;36.95;12.55;;;;;;;-5.74;100.00;99605.56;5092830;28;20039;-65
2022/12/13 07:53:33;;;;;;;32.95;11.18;;;;;;;-5.84;100.00;99601.78;5093220;28;20114;-66
2022/12/13 07:56:04;;;;;;;30.30;12.93;;;;;;;-5.72;100.00;99605.47;5093049;28;20042;-66
2022/12/13 07:58:29;;;;;;;39.15;11.10;;;;;;;-5.68;100.00;99611.31;5093200;28;20173;-65
2022/12/13 08:00:59;;;;;;;36.38;12.60;;;;;;;-5.76;100.00;99609.16;5092659;28;20060;-66
2022/12/13 08:03:24;;;;;;;26.45;11.68;;;;;;;-5.65;100.00;99614.59;5093070;28;20044;-66
2022/12/13 08:06:22;;;;;;;42.53;14.43;;;;;;;-5.57;100.00;99609.78;5093210;28;20039;-65
2022/12/13 08:09:11;;;;;;;24.70;8.98;;;;;;;-5.56;100.00;99615.81;5092649;28;20384;-66
2022/12/13 08:12:10;;;;;;;34.50;11.88;;;;;;;-5.52;100.00;99625.09;5071038;28;20053;-63
2022/12/13 08:15:14;;;;;;;27.52;10.88;;;;;;;-5.67;100.00;99624.22;5072173;28;20056;-64
2022/12/13 08:17:49;;;;;;;24.58;9.02;;;;;;;-5.60;100.00;99609.13;5073261;28;20479;-68
2022/12/13 08:20:16;;;;;;;32.65;9.80;;;;;;;-5.53;100.00;99610.47;5101867;28;20119;-65
2022/12/13 08:22:42;;;;;;;28.55;12.68;;;;;;;-5.51;100.00;99606.00;5112914;28;20050;-66
2022/12/13 08:25:11;;;;;;;43.75;13.48;;;;;;;-5.61;100.00;99602.25;5112781;28;20096;-66
2022/12/13 08:27:36;;;;;;;38.70;12.50;;;;;;;-5.52;100.00;99612.97;5094576;28;20084;-67
2022/12/13 08:30:03;;;;;;;38.63;11.13;;;;;;;-5.49;100.00;99615.38;5111540;28;20088;-66
2022/12/13 08:32:28;;;;;;;38.05;13.82;;;;;;;-5.41;100.00;99616.69;5112291;28;20436;-67
2022/12/13 08:34:54;;;;;;;31.05;12.07;;;;;;;-5.30;100.00;99617.75;5111602;28;20103;-67
2022/12/13 08:37:20;;;;;;;31.60;10.60;;;;;;;-5.27;100.00;99609.81;5112596;28;20040;-67
2022/12/13 08:39:45;;;;;;;36.30;12.93;;;;;;;-5.22;100.00;99604.31;5094448;28;20426;-67
2022/12/13 08:42:13;;;;;;;33.15;9.50;;;;;;;-5.15;100.00;99600.47;5112357;28;20042;-67
2022/12/13 08:44:39;;;;;;;31.45;11.13;;;;;;;-5.04;100.00;99598.06;5112616;28;20036;-68
2022/12/13 08:47:04;;;;;;;33.97;12.65;;;;;;;-5.04;99.54;99592.03;5112455;28;20093;-67
2022/12/13 08:49:30;;;;;;;30.38;10.55;;;;;;;-4.96;99.59;99593.22;5112445;28;20038;-67
2022/12/13 08:51:55;;;;;;;27.60;10.25;;;;;;;-5.06;99.31;99596.50;5111855;28;20042;-67
2022/12/13 08:54:20;;;;;;;37.63;11.95;;;;;;;-4.87;98.58;99591.88;5112330;28;20135;-68
2022/12/13 08:56:46;;;;;;;34.25;12.90;;;;;;;-4.73;98.12;99599.66;5110437;28;20234;-65
2022/12/13 08:59:12;;;;;;;28.10;9.40;;;;;;;-4.58;97.23;99602.28;5112298;28;20038;-66
2022/12/13 09:01:37;;;;;;;32.03;11.73;;;;;;;-4.44;96.12;99600.50;5107865;28;20035;-68
2022/12/13 09:04:03;;;;;;;43.70;13.32;;;;;;;-4.33;96.04;99602.44;5091637;28;20035;-68
2022/12/13 09:06:28;;;;;;;33.30;11.95;;;;;;;-4.27;95.57;99603.84;5091781;28;20499;-67
2022/12/13 09:08:53;;;;;;;31.50;11.85;;;;;;;-4.10;94.61;99606.22;5091003;28;20036;-69
2022/12/13 09:11:20;;;;;;;27.40;11.48;;;;;;;-3.90;92.83;99603.19;5091570;28;20205;-67
2022/12/13 09:13:46;;;;;;;31.33;13.73;;;;;;;-3.68;91.92;99592.25;5091884;28;20061;-67
2022/12/13 09:16:14;;;;;;;25.77;10.73;;;;;;;-3.57;90.50;99592.41;5091902;28;20520;-68
2022/12/13 09:18:40;;;;;;;48.58;13.77;;;;;;;-3.49;90.09;99596.25;5091882;28;20036;-68
2022/12/13 09:21:11;;;;;;;36.33;10.85;;;;;;;-3.53;89.90;99592.19;5091471;28;20130;-68
2022/12/13 09:23:37;;;;;;;25.85;11.05;;;;;;;-3.44;90.56;99589.00;5091994;28;20032;-68
2022/12/13 09:26:03;;;;;;;35.55;10.68;;;;;;;-3.51;90.28;99598.13;5091623;28;20441;-66
2022/12/13 09:28:29;;;;;;;33.72;12.10;;;;;;;-3.43;90.69;99599.31;5091542;28;20127;-66
2022/12/13 09:30:55;;;;;;;22.10;10.25;;;;;;;-3.43;88.95;99595.88;5091437;28;20120;-67
2022/12/13 09:33:21;;;;;;;41.72;13.90;;;;;;;-3.34;88.89;99606.50;5089793;28;20031;-66
2022/12/13 09:35:46;;;;;;;30.35;10.77;;;;;;;-3.30;89.01;99607.16;5091373;28;20583;-65
2022/12/13 09:38:12;;;;;;;35.17;12.82;;;;;;;-3.24;88.69;99600.69;5091505;28;20048;-67
2022/12/13 09:40:39;;;;;;;28.60;11.20;;;;;;;-3.19;88.53;99604.69;5091773;28;20098;-67
2022/12/13 09:43:05;;;;;;;22.05;11.27;;;;;;;-3.01;88.04;99606.03;5091723;28;20132;-67
2022/12/13 09:45:32;;;;;;;33.90;11.10;;;;;;;-3.15;86.75;99603.53;5091481;28;20113;-66
2022/12/13 09:47:58;;;;;;;30.10;10.63;;;;;;;-2.74;85.75;99594.69;5091461;28;20040;-67
2022/12/13 09:50:31;;;;;;;22.20;10.07;;;;;;;-2.74;85.86;99594.69;5091012;28;20066;-67
2022/12/13 09:52:58;;;;;;;24.60;10.18;;;;;;;-2.69;85.82;99597.81;5091663;28;20039;-63
2022/12/13 09:55:28;;;;;;;28.13;12.23;;;;;;;-2.79;87.22;99591.56;5091411;28;20516;-62
2022/12/13 09:57:54;;;;;;;45.15;11.80;;;;;;;-2.66;86.54;99591.56;5091278;28;20051;-63
2022/12/13 10:00:22;;;;;;;23.88;11.20;;;;;;;-2.47;85.79;99597.19;5090960;28;20028;-66
2022/12/13 10:02:51;;;;;;;21.40;9.95;;;;;;;-2.40;83.96;99594.97;5091263;28;20042;-66
2022/12/13 10:05:35;;;;;;;27.52;11.32;;;;;;;-2.26;83.69;99594.84;5091238;28;20024;-66
2022/12/13 10:08:24;;;;;;;28.65;12.10;;;;;;;-2.25;82.61;99578.25;5093277;28;20044;-65
2022/12/13 10:10:51;;;;;;;26.65;11.10;;;;;;;-2.13;80.99;99574.78;5094745;28;20124;-66
2022/12/13 10:13:19;;;;;;;;;;;;;;;-2.16;80.39;99572.38;5095354;28;20114;-66
2022/12/13 10:15:53;;;;;;;24.70;8.70;;;;;;;-1.91;79.63;99574.91;5094789;28;19911;-65
2022/12/13 10:18:34;;;;;;;40.53;11.50;;;;;;;-1.83;78.67;99571.72;5095052;28;20054;-65
2022/12/13 10:21:03;;;;;;;23.65;10.65;;;;;;;-1.84;79.03;99574.47;5094565;28;20040;-66
2022/12/13 10:23:29;;;;;;;25.88;11.93;;;;;;;-1.68;77.82;99559.34;5094814;28;20570;-66
2022/12/13 10:25:55;;;;;;;32.90;12.35;;;;;;;-1.51;77.44;99566.78;5094606;28;20048;-65
2022/12/13 10:28:30;;;;;;;18.48;9.27;;;;;;;-1.55;75.66;99546.22;5094649;28;20035;-65
2022/12/13 10:30:57;;;;;;;18.88;8.77;;;;;;;-1.66;76.95;99547.00;5094325;28;20432;-66
2022/12/13 10:33:30;;;;;;;24.10;10.20;;;;;;;-1.56;76.65;99545.41;5094777;28;20035;-66
2022/12/13 10:36:14;;;;;;;25.52;9.48;;;;;;;-1.40;75.25;99535.47;5094676;28;20093;-65
2022/12/13 10:38:42;;;;;;;31.88;10.20;;;;;;;-1.18;75.01;99528.63;5094825;28;20413;-66
2022/12/13 10:41:26;;;;;;;;;;;;;;;-1.04;73.17;99531.03;5094736;28;20040;-66
2022/12/13 10:44:23;;;;;;;17.42;9.57;;;;;;;-1.18;72.45;99542.50;5094578;28;19919;-65
2022/12/13 10:46:52;;;;;;;28.65;10.65;;;;;;;-0.99;72.64;99536.72;5094284;28;20043;-65
2022/12/13 10:49:22;;;;;;;23.70;8.57;;;;;;;-0.89;71.56;99537.69;5094401;28;20067;-64
2022/12/13 10:51:49;;;;;;;19.38;9.88;;;;;;;-1.00;72.90;99535.06;5094052;28;20395;-63
2022/12/13 10:54:29;;;;;;;27.53;8.67;;;;;;;-0.86;71.64;99547.09;5094513;28;20435;-65
2022/12/13 10:56:59;;;;;;;17.15;8.15;;;;;;;-0.77;69.95;99546.41;5094149;28;20119;-67
2022/12/13 10:59:34;;;;;;;21.42;9.30;;;;;;;-0.67;69.80;99544.72;5089133;28;20182;-66
2022/12/13 11:02:20;;;;;;;19.25;8.68;;;;;;;-0.65;70.23;99544.63;5089421;28;20080;-67
2022/12/13 11:04:46;;;;;;;19.88;7.57;;;;;;;-0.38;70.20;99537.22;5079717;28;20028;-66
2022/12/13 11:07:33;;;;;;;22.13;8.65;;;;;;;-0.37;68.23;99536.28;5073347;28;20558;-65
2022/12/13 11:10:19;;;;;;;21.13;8.30;;;;;;;-0.24;67.78;99530.91;5073781;28;20043;-66
2022/12/13 11:12:44;;;;;;;21.95;8.95;;;;;;;-0.20;66.97;99531.47;5077304;28;20039;-64
2022/12/13 11:15:18;;;;;;;23.67;9.18;;;;;;;-0.11;66.56;99520.28;5093708;28;20044;-65
2022/12/13 11:17:57;;;;;;;16.90;8.18;;;;;;;0.10;64.67;99510.69;5093642;28;20068;-65
2022/12/13 11:20:34;;;;;;;24.55;8.55;;;;;;;0.03;64.15;99513.94;5091968;28;20111;-64
2022/12/13 11:23:24;;;;;;;13.35;7.32;;;;;;;0.15;64.46;99503.28;5093948;28;20071;-66
2022/12/13 11:25:55;;;;;;;22.67;8.15;;;;;;;0.30;64.34;99501.19;5093864;28;20048;-66
2022/12/13 11:28:38;;;;;;;23.33;7.25;;;;;;;-0.04;63.32;99511.81;5093779;28;20485;-66
2022/12/13 11:31:22;;;;;;;28.70;7.28;;;;;;;-0.23;64.52;99509.00;5092287;28;20032;-65
2022/12/13 11:34:09;;;;;;;21.60;9.00;;;;;;;-0.35;65.32;99500.31;5093694;28;20408;-66
2022/12/13 11:36:38;;;;;;;17.17;7.43;;;;;;;-0.27;65.81;99512.81;5104004;22;20041;-65
2022/12/13 11:39:29;;;;;;;20.75;8.88;;;;;;;-0.54;66.30;99505.34;5071955;28;20037;-65
2022/12/13 11:42:25;;;;;;;21.67;8.13;;;;;;;-0.48;65.89;99498.81;5072794;28;20055;-65
2022/12/13 11:45:05;;;;;;;14.55;6.63;;;;;;;-0.49;65.34;99499.75;5072912;28;20032;-66
2022/12/13 11:48:08;;;;;;;17.25;6.45;;;;;;;-0.49;65.98;99500.59;5051747;28;20080;-65
2022/12/13 11:50:41;;;;;;;19.05;6.63;;;;;;;-0.30;65.57;99506.03;5043958;28;20093;-65
2022/12/13 11:53:19;;;;;;;17.85;7.75;;;;;;;-0.45;65.75;99488.94;5052635;28;20039;-65
2022/12/13 11:56:03;;;;;;;11.20;5.95;;;;;;;-0.28;64.96;99472.72;5052578;28;20044;-65
2022/12/13 11:58:59;;;;;;;17.95;7.15;;;;;;;-0.06;65.11;99473.63;5052589;28;20040;-65
2022/12/13 12:01:49;;;;;;;19.10;7.85;;;;;;;-0.09;64.60;99474.69;5052287;28;20043;-66
2022/12/13 12:04:31;;;;;;;13.90;5.90;;;;;;;-0.12;63.88;99481.97;5052675;28;20393;-65
2022/12/13 12:07:06;;;;;;;20.52;8.60;;;;;;;-0.23;65.48;99482.00;5052450;28;20040;-65
2022/12/13 12:09:35;;;;;;;17.88;7.78;;;;;;;-0.04;64.79;99477.75;5052402;28;20090;-65
2022/12/13 12:12:11;;;;;;;28.85;8.90;;;;;;;-0.04;64.89;99480.38;5051878;28;20045;-65
2022/12/13 12:14:44;;;;;;;15.27;7.13;;;;;;;-0.03;65.32;99475.97;5067778;28;20037;-65
2022/12/13 12:17:14;;;;;;;17.10;8.20;;;;;;;-0.32;65.57;99463.47;5052431;28;20370;-65
2022/12/13 12:19:45;;;;;;;22.75;6.28;;;;;;;-0.17;65.54;99452.72;5050225;28;20033;-64
2022/12/13 12:22:41;;;;;;;17.38;7.07;;;;;;;0.02;64.88;99457.28;5051202;28;20033;-64
2022/12/13 12:25:12;;;;;;;17.25;7.25;;;;;;;-0.22;65.23;99460.09;5051517;28;20087;-64
2022/12/13 12:27:55;;;;;;;12.88;6.07;;;;;;;-0.05;64.87;99470.03;5051954;28;20111;-63
2022/12/13 12:30:36;;;;;;;11.07;6.78;;;;;;;-0.14;64.61;99465.53;5050985;28;20116;-63
2022/12/13 12:33:17;;;;;;;14.43;6.28;;;;;;;-0.17;65.66;99469.25;5051924;28;20726;-64
2022/12/13 12:35:51;;;;;;;13.68;6.65;;;;;;;-0.17;65.43;99466.63;5051721;28;20036;-64
2022/12/13 12:38:35;;;;;;;13.80;6.40;;;;;;;-0.06;64.97;99471.00;5051826;28;20037;-64
2022/12/13 12:41:12;;;;;;;14.80;6.85;;;;;;;-0.13;64.94;99461.97;5051523;28;20033;-64
2022/12/13 12:43:42;;;;;;;15.73;7.32;;;;;;;-0.12;65.38;99458.41;5052369;28;20083;-64
2022/12/13 12:46:26;;;;;;;17.17;7.35;;;;;;;-0.03;64.88;99453.25;5052179;28;20494;-65
2022/12/13 12:49:13;;;;;;;10.05;5.95;;;;;;;0.11;64.18;99454.72;5050638;28;20040;-64
2022/12/13 12:52:21;;;;;;;18.42;7.25;;;;;;;0.16;63.29;99454.34;5051244;28;20044;-63
2022/12/13 12:54:49;;;;;;;18.63;6.15;;;;;;;-0.02;64.37;99444.41;5051756;28;20516;-64
2022/12/13 12:57:52;;;;;;;16.58;6.78;;;;;;;0.24;63.39;99447.53;5050277;28;20025;-64
2022/12/13 13:00:23;;;;;;;18.38;6.38;;;;;;;-0.01;63.30;99450.50;5051254;28;20043;-63
2022/12/13 13:03:00;;;;;;;11.98;6.28;;;;;;;0.06;63.04;99450.81;5051719;28;20040;-64
2022/12/13 13:05:41;;;;;;;17.88;7.03;;;;;;;0.08;63.02;99435.84;5051634;28;20043;-64
2022/12/13 13:08:25;;;;;;;10.60;5.05;;;;;;;0.02;63.36;99437.16;5050217;28;20116;-64
2022/12/13 13:10:52;;;;;;;9.18;5.15;;;;;;;0.09;62.30;99433.06;5050887;28;20069;-64
2022/12/13 13:13:47;;;;;;;9.77;5.80;;;;;;;0.09;62.56;99424.41;5050312;28;20053;-64
2022/12/13 13:16:40;;;;;;;12.82;6.05;;;;;;;0.06;63.08;99424.63;5048549;28;20087;-65
2022/12/13 13:19:12;;;;;;;10.80;5.38;;;;;;;-0.16;63.60;99428.19;5051521;28;20036;-64
2022/12/13 13:21:45;;;;;;;17.45;6.95;;;;;;;-0.33;63.00;99427.78;5050446;28;20036;-64
2022/12/13 13:24:14;;;;;;;17.48;6.38;;;;;;;-0.25;63.39;99426.31;5049111;28;20163;-63
2022/12/13 13:26:45;;;;;;;9.02;5.25;;;;;;;-0.19;63.25;99436.31;5051378;28;20037;-63
2022/12/13 13:29:25;;;;;;;14.50;6.05;;;;;;;-0.39;63.11;99438.75;5051172;28;20124;-62
2022/12/13 13:32:12;;;;;;;13.35;5.82;;;;;;;-0.30;63.35;99439.78;5051037;28;20457;-63
2022/12/13 13:34:43;;;;;;;13.70;5.28;;;;;;;-0.38;63.27;99436.94;5049945;28;20043;-64
2022/12/13 13:37:24;;;;;;;13.23;6.03;;;;;;;-0.28;64.04;99437.84;5051075;28;20672;-64
2022/12/13 13:40:00;;;;;;;10.85;4.15;;;;;;;-0.25;62.97;99442.03;5049792;28;20045;-64
2022/12/13 13:42:28;;;;;;;11.30;5.00;;;;;;;-0.37;63.78;99439.44;5051809;28;20035;-64
2022/12/13 13:45:20;;;;;;;13.18;5.07;;;;;;;-0.43;64.73;99439.94;5048955;28;20127;-64
2022/12/13 13:48:10;;;;;;;15.68;5.70;;;;;;;-0.36;65.76;99438.47;5035203;28;20049;-64
2022/12/13 13:51:14;;;;;;;13.13;5.35;;;;;;;-0.55;68.68;99444.34;5034143;28;20044;-65
2022/12/13 13:54:23;;;;;;;12.95;6.13;;;;;;;-0.47;70.03;99446.34;5023296;28;20107;-65
2022/12/13 13:57:07;;;;;;;11.82;5.05;;;;;;;-0.66;71.55;99452.22;5032864;28;20053;-64
2022/12/13 13:59:51;;;;;;;21.48;6.78;;;;;;;-0.83;73.10;99456.16;5035032;28;20079;-64
2022/12/13 14:02:25;;;;;;;18.42;7.72;;;;;;;-0.80;74.79;99456.88;5034855;28;20062;-64
2022/12/13 14:05:27;;;;;;;16.48;6.80;;;;;;;-0.96;75.20;99450.22;5036086;28;20502;-63
2022/12/13 14:08:13;;;;;;;11.30;5.22;;;;;;;-0.96;76.25;99449.41;5035043;28;20383;-63
2022/12/13 14:11:13;;;;;;;15.38;6.35;;;;;;;-0.89;75.86;99451.41;5034439;28;20076;-63
2022/12/13 14:14:17;;;;;;;15.93;6.60;;;;;;;-0.85;75.77;99452.84;5035140;28;20037;-63
2022/12/13 14:17:19;;;;;;;11.40;6.25;;;;;;;-1.01;77.65;99446.31;5035018;28;20025;-63
2022/12/13 14:20:12;;;;;;;15.95;6.75;;;;;;;-0.97;77.50;99445.94;5040525;28;20032;-65
2022/12/13 14:22:44;;;;;;;10.77;5.20;;;;;;;-0.99;78.43;99429.53;5054564;28;20025;-63
2022/12/13 14:25:27;;;;;;;12.98;6.85;;;;;;;-1.08;78.37;99437.28;5054452;28;20059;-62
2022/12/13 14:28:04;;;;;;;15.65;6.05;;;;;;;-1.11;78.22;99430.47;5054478;28;20067;-63
2022/12/13 14:30:30;;;;;;;14.75;6.32;;;;;;;-1.15;78.67;99434.31;5054103;28;20124;-64
2022/12/13 14:32:56;;;;;;;14.40;6.72;;;;;;;-1.43;80.74;99438.22;5054599;28;20100;-63
2022/12/13 14:35:29;;;;;;;12.73;6.78;;;;;;;-1.34;79.97;99436.66;5054091;28;20497;-64
2022/12/13 14:38:03;;;;;;;18.75;6.70;;;;;;;-1.46;81.21;99430.59;5054265;28;20037;-64
2022/12/13 14:40:33;;;;;;;12.93;5.75;;;;;;;-1.53;81.74;99432.84;5053937;28;20401;-64
2022/12/13 14:43:00;;;;;;;14.65;6.25;;;;;;;-1.45;82.19;99430.47;5054197;28;20115;-64
2022/12/13 14:45:32;;;;;;;15.18;7.00;;;;;;;-1.53;82.26;99435.44;5054081;28;20529;-64
2022/12/13 14:48:02;;;;;;;18.17;7.20;;;;;;;-1.50;82.31;99437.84;5054109;28;20040;-64
2022/12/13 14:50:32;;;;;;;14.93;5.80;;;;;;;-1.65;83.71;99418.91;5053546;28;20486;-64
2022/12/13 14:52:58;;;;;;;13.20;5.90;;;;;;;-1.66;83.38;99416.44;5053731;28;20397;-65
2022/12/13 14:55:30;;;;;;;12.48;5.15;;;;;;;-1.67;83.31;99420.00;5053835;28;20436;-65
2022/12/13 14:57:58;;;;;;;18.20;7.68;;;;;;;-1.74;83.95;99411.78;5052718;28;20037;-64
2022/12/13 15:00:24;;;;;;;12.73;6.25;;;;;;;-1.80;84.80;99419.25;5053528;28;20029;-64
2022/12/13 15:02:52;;;;;;;18.48;8.48;;;;;;;-1.88;85.76;99412.00;5053742;28;20036;-65
2022/12/13 15:05:40;;;;;;;13.95;6.18;;;;;;;-1.79;84.82;99406.06;5053804;28;20502;-65
2022/12/13 15:08:13;;;;;;;11.85;6.28;;;;;;;-1.87;85.15;99402.38;5052558;28;20065;-65
2022/12/13 15:10:42;;;;;;;23.92;7.13;;;;;;;-1.87;85.92;99390.16;5053292;28;20063;-64
2022/12/13 15:13:19;;;;;;;13.57;6.75;;;;;;;-1.92;85.86;99389.66;5052502;28;20032;-64
2022/12/13 15:15:52;;;;;;;7.93;5.80;;;;;;;-2.12;87.19;99377.28;5053636;28;20124;-66
2022/12/13 15:18:23;;;;;;;19.30;7.28;;;;;;;-2.06;87.81;99388.09;5052274;28;20047;-63
2022/12/13 15:20:54;;;;;;;11.43;5.93;;;;;;;-2.16;88.10;99381.03;5053212;28;20401;-62
2022/12/13 15:23:30;;;;;;;17.23;6.13;;;;;;;-2.17;87.92;99384.59;5053607;28;20570;-64
2022/12/13 15:26:15;;;;;;;20.60;7.30;;;;;;;-2.13;88.24;99376.44;5053293;28;20102;-63
2022/12/13 15:28:43;;;;;;;11.70;5.97;;;;;;;-2.17;88.97;99380.22;5053366;28;20882;-63
2022/12/13 15:31:10;;;;;;;11.98;6.75;;;;;;;-2.16;88.93;99381.03;5052934;28;20100;-64
2022/12/13 15:33:36;;;;;;;12.93;6.32;;;;;;;-2.19;89.74;99377.72;5053643;28;20095;-66
2022/12/13 15:36:24;;;;;;;16.00;6.93;;;;;;;-2.30;90.22;99385.50;5053219;28;20406;-65
2022/12/13 15:38:53;;;;;;;14.48;7.10;;;;;;;-2.23;89.69;99380.66;5053228;28;20036;-63
2022/12/13 15:41:23;;;;;;;11.25;6.07;;;;;;;-2.22;89.27;99366.66;5052791;28;20394;-63
2022/12/13 15:44:18;;;;;;;16.40;6.45;;;;;;;-2.30;89.65;99369.84;5053013;28;20041;-63
2022/12/13 15:46:46;;;;;;;11.52;6.07;;;;;;;-2.34;90.12;99367.59;5042906;28;20052;-63
2022/12/13 15:49:21;;;;;;;;;;;;;;;-2.41;91.44;99371.56;5053358;28;20090;-63
2022/12/13 15:52:00;;;;;;;9.98;4.47;;;;;;;-2.30;90.52;99364.63;5052563;28;19923;-63
2022/12/13 15:54:27;;;;;;;10.60;5.22;;;;;;;-2.32;89.71;99361.31;5052763;28;20041;-63
2022/12/13 15:57:02;;;;;;;15.38;6.57;;;;;;;-2.39;90.47;99367.94;5052647;28;20048;-63
2022/12/13 15:59:33;;;;;;;11.77;6.18;;;;;;;-2.39;91.07;99365.31;5052621;28;20025;-64
2022/12/13 16:02:00;;;;;;;16.38;7.55;;;;;;;-2.30;89.96;99363.78;5051015;28;20037;-64
2022/12/13 16:04:29;;;;;;;13.07;6.50;;;;;;;-2.31;90.34;99362.13;5051228;28;20121;-64
2022/12/13 16:06:55;;;;;;;10.95;6.07;;;;;;;-2.29;89.61;99362.84;5050698;28;20032;-64
2022/12/13 16:09:24;;;;;;;12.77;5.78;;;;;;;-2.34;89.86;99358.00;5052022;28;20055;-65
2022/12/13 16:11:54;;;;;;;18.20;6.97;;;;;;;-2.36;89.81;99359.03;5051237;28;20033;-65
2022/12/13 16:14:32;;;;;;;10.60;4.47;;;;;;;-2.35;90.57;99358.09;5051133;28;20041;-65
2022/12/13 16:17:06;;;;;;;14.52;7.22;;;;;;;-2.33;89.91;99356.22;5052215;28;20040;-65
2022/12/13 16:19:33;;;;;;;11.13;5.97;;;;;;;-2.32;89.89;99355.25;5050639;28;20044;-64
2022/12/13 16:21:59;;;;;;;7.68;4.95;;;;;;;-2.41;90.89;99356.78;5033766;28;20025;-65
2022/12/13 16:24:24;;;;;;;13.43;6.60;;;;;;;-2.34;90.18;99351.94;5051358;28;20045;-65
2022/12/13 16:26:50;;;;;;;9.43;6.72;;;;;;;-2.37;90.19;99345.16;5051545;28;20049;-65
2022/12/13 16:29:20;;;;;;;8.05;4.20;;;;;;;-2.36;90.17;99348.59;5050237;28;20047;-65
2022/12/13 16:31:45;;;;;;;11.90;4.28;;;;;;;-2.38;89.76;99346.09;5051104;28;20129;-65
2022/12/13 16:34:12;;;;;;;16.27;5.75;;;;;;;-2.45;89.58;99355.34;5051958;28;20120;-71
2022/12/13 16:36:38;;;;;;;16.73;6.23;;;;;;;-2.47;91.44;99359.84;5051249;28;20048;-71
2022/12/13 16:39:06;;;;;;;10.63;5.10;;;;;;;-2.53;91.98;99348.06;5051383;28;20032;-68
2022/12/13 16:41:37;;;;;;;14.93;4.45;;;;;;;-2.55;91.52;99336.91;5051080;28;20208;-68
2022/12/13 16:44:04;;;;;;;9.50;5.78;;;;;;;-2.50;91.23;99347.84;5051801;28;20037;-72
2022/12/13 16:46:30;;;;;;;;;;;;;;;-2.46;91.37;99346.69;5052079;28;20112;-70
2022/12/13 16:48:55;;;;;;;7.13;5.00;;;;;;;-2.60;91.28;99330.38;5049905;28;20345;-70
2022/12/13 16:51:24;;;;;;;7.82;4.97;;;;;;;-2.52;91.14;99343.69;5050440;28;20037;-71
2022/12/13 16:53:50;;;;;;;16.58;6.43;;;;;;;-2.61;92.62;99350.41;5052040;28;20589;-70
2022/12/13 16:56:20;;;;;;;6.68;3.67;;;;;;;-2.59;92.92;99348.53;5051262;28;20678;-70
2022/12/13 16:58:48;;;;;;;15.38;5.95;;;;;;;-2.60;92.31;99344.25;5051196;28;20439;-69
2022/12/13 17:01:18;;;;;;;8.45;5.18;;;;;;;-2.58;91.30;99344.97;5050455;28;20055;-72
2022/12/13 17:03:44;;;;;;;18.30;5.38;;;;;;;-2.51;91.80;99340.13;5050168;28;20140;-70
2022/12/13 17:06:11;;;;;;;18.27;6.80;;;;;;;-2.54;92.04;99337.75;5051039;28;20120;-70
2022/12/13 17:08:36;;;;;;;18.48;5.63;;;;;;;-2.56;91.14;99340.47;5050390;28;20473;-71